sensor_id;sensor_type;location;lat;lon;timestamp;pressure;altitude;pressure_sealevel;temperature;humidity
50282;BME280;36176;51.506;10.272;2023-12-20T00:01:38;99109.38;;;5.32;100.00
50282;BME280;36176;51.506;10.272;2023-12-20T00:04:06;99114.59;;;5.34;100.00
50282;BME280;36176;51.506;10.272;2023-12-20T00:06:33;99100.53;;;5.35;100.00
50282;BME280;36176;51.506;10.272;2023-12-20T00:09:00;99104.97;;;5.33;100.00
50282;BME280;36176;51.506;10.272;2023-12-20T00:11:27;99098.81;;;5.34;100.00
50282;BME280;36176;51.506;10.272;2023-12-20T00:13:54;99103.19;;;5.33;100.00
50282;BME280;36176;51.506;10.272;2023-12-20T00:16:21;99100.56;;;5.33;100.00
50282;BME280;36176;51.506;10.272;2023-12-20T00:18:48;99096.19;;;5.34;100.00
50282;BME280;36176;51.506;10.272;2023-12-20T00:21:15;99098.72;;;5.37;100.00
50282;BME280;36176;51.506;10.272;2023-12-20T00:23:42;99096.91;;;5.39;100.00
50282;BME280;36176;51.506;10.272;2023-12-20T00:26:09;99096.03;;;5.39;100.00
50282;BME280;36176;51.506;10.272;2023-12-20T00:28:37;99088.22;;;5.37;100.00
50282;BME280;36176;51.506;10.272;2023-12-20T00:31:04;99089.16;;;5.35;100.00
50282;BME280;36176;51.506;10.272;2023-12-20T00:33:31;99074.25;;;5.35;100.00
50282;BME280;36176;51.506;10.272;2023-12-20T00:35:59;99087.44;;;5.33;100.00
50282;BME280;36176;51.506;10.272;2023-12-20T00:38:26;99088.31;;;5.34;100.00
50282;BME280;36176;51.506;10.272;2023-12-20T00:40:53;99085.69;;;5.34;100.00
50282;BME280;36176;51.506;10.272;2023-12-20T00:43:20;99086.47;;;5.36;100.00
50282;BME280;36176;51.506;10.272;2023-12-20T00:45:47;99079.38;;;5.40;100.00
50282;BME280;36176;51.506;10.272;2023-12-20T00:48:14;99074.16;;;5.38;100.00
50282;BME280;36176;51.506;10.272;2023-12-20T00:50:42;99080.25;;;5.39;100.00
50282;BME280;36176;51.506;10.272;2023-12-20T00:53:09;99073.25;;;5.39;100.00
50282;BME280;36176;51.506;10.272;2023-12-20T00:55:36;99077.59;;;5.40;100.00
50282;BME280;36176;51.506;10.272;2023-12-20T00:58:03;99085.38;;;5.43;100.00
50282;BME280;36176;51.506;10.272;2023-12-20T01:00:30;99084.59;;;5.41;100.00
50282;BME280;36176;51.506;10.272;2023-12-20T01:02:58;99080.19;;;5.42;100.00
50282;BME280;36176;51.506;10.272;2023-12-20T01:05:25;99074.00;;;5.43;100.00
50282;BME280;36176;51.506;10.272;2023-12-20T01:07:52;99079.22;;;5.44;100.00
50282;BME280;36176;51.506;10.272;2023-12-20T01:10:19;99085.28;;;5.46;100.00
50282;BME280;36176;51.506;10.272;2023-12-20T01:12:46;99087.03;;;5.46;100.00
50282;BME280;36176;51.506;10.272;2023-12-20T01:15:13;99082.66;;;5.46;100.00
50282;BME280;36176;51.506;10.272;2023-12-20T01:17:41;99090.47;;;5.48;100.00
50282;BME280;36176;51.506;10.272;2023-12-20T01:20:08;99087.00;;;5.47;100.00
50282;BME280;36176;51.506;10.272;2023-12-20T01:22:35;99080.13;;;5.43;100.00
50282;BME280;36176;51.506;10.272;2023-12-20T01:25:03;99075.78;;;5.42;100.00
50282;BME280;36176;51.506;10.272;2023-12-20T01:27:30;99083.63;;;5.44;100.00
50282;BME280;36176;51.506;10.272;2023-12-20T01:29:57;99084.38;;;5.47;100.00
50282;BME280;36176;51.506;10.272;2023-12-20T01:32:24;99077.34;;;5.48;100.00
50282;BME280;36176;51.506;10.272;2023-12-20T01:34:51;99075.59;;;5.48;100.00
50282;BME280;36176;51.506;10.272;2023-12-20T01:37:19;99073.81;;;5.49;100.00
50282;BME280;36176;51.506;10.272;2023-12-20T01:39:46;99076.44;;;5.49;100.00
50282;BME280;36176;51.506;10.272;2023-12-20T01:42:13;99072.91;;;5.50;100.00
50282;BME280;36176;51.506;10.272;2023-12-20T01:44:40;99086.00;;;5.51;100.00
50282;BME280;36176;51.506;10.272;2023-12-20T01:47:08;99077.16;;;5.54;100.00
50282;BME280;36176;51.506;10.272;2023-12-20T01:49:35;99073.59;;;5.55;100.00
50282;BME280;36176;51.506;10.272;2023-12-20T01:52:03;99069.22;;;5.56;100.00
50282;BME280;36176;51.506;10.272;2023-12-20T01:54:31;99067.34;;;5.59;100.00
50282;BME280;36176;51.506;10.272;2023-12-20T01:56:58;99063.78;;;5.60;100.00
50282;BME280;36176;51.506;10.272;2023-12-20T01:59:27;99062.09;;;5.59;100.00
50282;BME280;36176;51.506;10.272;2023-12-20T02:01:55;99068.25;;;5.58;100.00
50282;BME280;36176;51.506;10.272;2023-12-20T02:04:23;99076.06;;;5.60;100.00
50282;BME280;36176;51.506;10.272;2023-12-20T02:06:52;99061.28;;;5.57;100.00
50282;BME280;36176;51.506;10.272;2023-12-20T02:09:19;99064.81;;;5.56;100.00
50282;BME280;36176;51.506;10.272;2023-12-20T02:11:46;99072.72;;;5.56;100.00
50282;BME280;36176;51.506;10.272;2023-12-20T02:14:14;99065.69;;;5.57;100.00
50282;BME280;36176;51.506;10.272;2023-12-20T02:16:41;99063.00;;;5.58;100.00
50282;BME280;36176;51.506;10.272;2023-12-20T02:19:13;99067.44;;;5.56;100.00
50282;BME280;36176;51.506;10.272;2023-12-20T02:21:40;99069.22;;;5.56;100.00
50282;BME280;36176;51.506;10.272;2023-12-20T02:24:08;99068.31;;;5.57;100.00
50282;BME280;36176;51.506;10.272;2023-12-20T02:26:35;99070.06;;;5.56;100.00
50282;BME280;36176;51.506;10.272;2023-12-20T02:29:02;99075.38;;;5.54;100.00
50282;BME280;36176;51.506;10.272;2023-12-20T02:31:29;99072.72;;;5.56;100.00
50282;BME280;36176;51.506;10.272;2023-12-20T02:33:56;99075.38;;;5.54;100.00
50282;BME280;36176;51.506;10.272;2023-12-20T02:36:23;99064.97;;;5.51;100.00
50282;BME280;36176;51.506;10.272;2023-12-20T02:38:50;99069.25;;;5.54;100.00
50282;BME280;36176;51.506;10.272;2023-12-20T02:41:17;99047.31;;;5.55;100.00
50282;BME280;36176;51.506;10.272;2023-12-20T02:43:45;99065.63;;;5.58;100.00
50282;BME280;36176;51.506;10.272;2023-12-20T02:46:13;99065.56;;;5.60;100.00
50282;BME280;36176;51.506;10.272;2023-12-20T02:48:42;99066.53;;;5.57;100.00
50282;BME280;36176;51.506;10.272;2023-12-20T02:51:09;99072.56;;;5.61;100.00
50282;BME280;36176;51.506;10.272;2023-12-20T02:53:36;99061.88;;;5.65;100.00
50282;BME280;36176;51.506;10.272;2023-12-20T02:56:04;99074.09;;;5.66;100.00
50282;BME280;36176;51.506;10.272;2023-12-20T02:58:31;99074.06;;;5.68;100.00
50282;BME280;36176;51.506;10.272;2023-12-20T03:01:01;99074.91;;;5.68;100.00
50282;BME280;36176;51.506;10.272;2023-12-20T03:03:28;99066.09;;;5.69;100.00
50282;BME280;36176;51.506;10.272;2023-12-20T03:05:55;99071.31;;;5.71;100.00
50282;BME280;36176;51.506;10.272;2023-12-20T03:08:22;99082.78;;;5.70;100.00
50282;BME280;36176;51.506;10.272;2023-12-20T03:10:50;99078.28;;;5.72;100.00
50282;BME280;36176;51.506;10.272;2023-12-20T03:13:17;99079.22;;;5.71;100.00
50282;BME280;36176;51.506;10.272;2023-12-20T03:15:45;99073.91;;;5.72;100.00
50282;BME280;36176;51.506;10.272;2023-12-20T03:18:12;99073.91;;;5.72;100.00
50282;BME280;36176;51.506;10.272;2023-12-20T03:20:39;99073.97;;;5.71;100.00
50282;BME280;36176;51.506;10.272;2023-12-20T03:23:06;99067.78;;;5.72;100.00
50282;BME280;36176;51.506;10.272;2023-12-20T03:25:33;99066.88;;;5.73;100.00
50282;BME280;36176;51.506;10.272;2023-12-20T03:28:00;99057.34;;;5.70;100.00
50282;BME280;36176;51.506;10.272;2023-12-20T03:30:27;99058.22;;;5.69;100.00
50282;BME280;36176;51.506;10.272;2023-12-20T03:32:54;99047.78;;;5.68;100.00
50282;BME280;36176;51.506;10.272;2023-12-20T03:35:21;99055.75;;;5.65;100.00
50282;BME280;36176;51.506;10.272;2023-12-20T03:37:48;99053.19;;;5.63;100.00
50282;BME280;36176;51.506;10.272;2023-12-20T03:40:16;99065.63;;;5.58;100.00
50282;BME280;36176;51.506;10.272;2023-12-20T03:42:43;99071.84;;;5.56;100.00
50282;BME280;36176;51.506;10.272;2023-12-20T03:45:10;99073.75;;;5.50;100.00
50282;BME280;36176;51.506;10.272;2023-12-20T03:47:37;99078.16;;;5.50;100.00
50282;BME280;36176;51.506;10.272;2023-12-20T03:50:05;99074.66;;;5.49;100.00
50282;BME280;36176;51.506;10.272;2023-12-20T03:52:32;99079.00;;;5.50;100.00
50282;BME280;36176;51.506;10.272;2023-12-20T03:54:59;99069.38;;;5.51;100.00
50282;BME280;36176;51.506;10.272;2023-12-20T03:57:27;99077.16;;;5.54;100.00
50282;BME280;36176;51.506;10.272;2023-12-20T03:59:54;99071.94;;;5.52;99.72
50282;BME280;36176;51.506;10.272;2023-12-20T04:02:21;99071.94;;;5.52;99.64
50282;BME280;36176;51.506;10.272;2023-12-20T04:04:48;99067.59;;;5.51;99.39
50282;BME280;36176;51.506;10.272;2023-12-20T04:07:15;99073.75;;;5.50;99.30
50282;BME280;36176;51.506;10.272;2023-12-20T04:09:42;99071.22;;;5.47;99.33
50282;BME280;36176;51.506;10.272;2023-12-20T04:12:09;99077.59;;;5.40;99.13
50282;BME280;36176;51.506;10.272;2023-12-20T04:14:36;99073.44;;;5.33;99.30
50282;BME280;36176;51.506;10.272;2023-12-20T04:17:03;99086.56;;;5.33;99.31
50282;BME280;36176;51.506;10.272;2023-12-20T04:19:31;99083.94;;;5.33;99.74
50282;BME280;36176;51.506;10.272;2023-12-20T04:21:58;99077.00;;;5.32;99.13
50282;BME280;36176;51.506;10.272;2023-12-20T04:24:25;99072.63;;;5.31;98.66
50282;BME280;36176;51.506;10.272;2023-12-20T04:26:52;99082.25;;;5.32;97.86
50282;BME280;36176;51.506;10.272;2023-12-20T04:29:20;99083.13;;;5.31;97.13
50282;BME280;36176;51.506;10.272;2023-12-20T04:31:47;99079.50;;;5.35;96.84
50282;BME280;36176;51.506;10.272;2023-12-20T04:34:14;99084.66;;;5.38;96.84
50282;BME280;36176;51.506;10.272;2023-12-20T04:36:41;99094.16;;;5.42;95.59
50282;BME280;36176;51.506;10.272;2023-12-20T04:39:08;99091.44;;;5.45;95.35
50282;BME280;36176;51.506;10.272;2023-12-20T04:41:35;99087.03;;;5.46;95.39
50282;BME280;36176;51.506;10.272;2023-12-20T04:44:03;99083.66;;;5.42;95.20
50282;BME280;36176;51.506;10.272;2023-12-20T04:46:30;99073.41;;;5.35;95.09
50282;BME280;36176;51.506;10.272;2023-12-20T04:48:57;99086.78;;;5.27;95.40
50282;BME280;36176;51.506;10.272;2023-12-20T04:51:24;99088.84;;;5.17;95.80
50282;BME280;36176;51.506;10.272;2023-12-20T04:53:51;99097.88;;;5.08;95.35
50282;BME280;36176;51.506;10.272;2023-12-20T04:56:18;99095.25;;;5.08;95.68
50282;BME280;36176;51.506;10.272;2023-12-20T04:58:45;99087.25;;;5.11;95.96
50282;BME280;36176;51.506;10.272;2023-12-20T05:01:12;99084.50;;;5.16;95.16
50282;BME280;36176;51.506;10.272;2023-12-20T05:03:39;99083.50;;;5.20;95.37
50282;BME280;36176;51.506;10.272;2023-12-20T05:06:06;99084.25;;;5.24;95.32
50282;BME280;36176;51.506;10.272;2023-12-20T05:08:34;99090.31;;;5.26;95.02
50282;BME280;36176;51.506;10.272;2023-12-20T05:11:01;99085.03;;;5.27;95.23
50282;BME280;36176;51.506;10.272;2023-12-20T05:13:28;99084.19;;;5.25;95.37
50282;BME280;36176;51.506;10.272;2023-12-20T05:16:10;99082.50;;;5.24;95.58
50282;BME280;36176;51.506;10.272;2023-12-20T05:18:37;99081.53;;;5.27;94.65
50282;BME280;36176;51.506;10.272;2023-12-20T05:21:05;99077.13;;;5.27;94.81
50282;BME280;36176;51.506;10.272;2023-12-20T05:23:32;99080.59;;;5.29;94.51
50282;BME280;36176;51.506;10.272;2023-12-20T05:25:59;99082.28;;;5.30;94.25
50282;BME280;36176;51.506;10.272;2023-12-20T05:28:26;99079.63;;;5.32;93.94
50282;BME280;36176;51.506;10.272;2023-12-20T05:30:54;99081.53;;;5.27;93.38
50282;BME280;36176;51.506;10.272;2023-12-20T05:33:21;99085.91;;;5.26;93.97
50282;BME280;36176;51.506;10.272;2023-12-20T05:35:48;99087.75;;;5.24;93.90
50282;BME280;36176;51.506;10.272;2023-12-20T05:38:16;99083.53;;;5.19;93.64
50282;BME280;36176;51.506;10.272;2023-12-20T05:40:45;99085.34;;;5.17;94.04
50282;BME280;36176;51.506;10.272;2023-12-20T05:43:12;99082.81;;;5.14;93.42
50282;BME280;36176;51.506;10.272;2023-12-20T05:45:39;99078.50;;;5.13;93.69
50282;BME280;36176;51.506;10.272;2023-12-20T05:48:07;99069.59;;;5.17;93.42
50282;BME280;36176;51.506;10.272;2023-12-20T05:50:34;99068.84;;;5.13;92.29
50282;BME280;36176;51.506;10.272;2023-12-20T05:53:01;99070.81;;;5.05;92.85
50282;BME280;36176;51.506;10.272;2023-12-20T05:55:28;99072.00;;;4.96;92.76
50282;BME280;36176;51.506;10.272;2023-12-20T05:57:55;99074.69;;;4.93;93.23
50282;BME280;36176;51.506;10.272;2023-12-20T06:00:23;99084.47;;;4.88;93.38
50282;BME280;36176;51.506;10.272;2023-12-20T06:02:50;99086.13;;;4.90;92.75
50282;BME280;36176;51.506;10.272;2023-12-20T06:05:17;99099.13;;;4.95;93.08
50282;BME280;36176;51.506;10.272;2023-12-20T06:07:45;99112.09;;;5.01;93.01
50282;BME280;36176;51.506;10.272;2023-12-20T06:10:12;99101.38;;;5.07;92.96
50282;BME280;36176;51.506;10.272;2023-12-20T06:12:40;99111.00;;;5.08;92.89
50282;BME280;36176;51.506;10.272;2023-12-20T06:15:07;99103.00;;;5.11;93.00
50282;BME280;36176;51.506;10.272;2023-12-20T06:17:34;99105.59;;;5.13;92.69
50282;BME280;36176;51.506;10.272;2023-12-20T06:20:01;99103.72;;;5.17;92.46
50282;BME280;36176;51.506;10.272;2023-12-20T06:22:29;99098.44;;;5.18;91.86
50282;BME280;36176;51.506;10.272;2023-12-20T06:24:57;99095.78;;;5.20;92.37
50282;BME280;36176;51.506;10.272;2023-12-20T06:27:24;99102.72;;;5.21;91.58
50282;BME280;36176;51.506;10.272;2023-12-20T06:29:51;99097.47;;;5.21;91.60
50282;BME280;36176;51.506;10.272;2023-12-20T06:32:18;99097.47;;;5.21;92.13
50282;BME280;36176;51.506;10.272;2023-12-20T06:34:46;99096.63;;;5.20;92.25
50282;BME280;36176;51.506;10.272;2023-12-20T06:37:13;99093.94;;;5.22;92.46
50282;BME280;36176;51.506;10.272;2023-12-20T06:39:40;99100.09;;;5.21;92.12
50282;BME280;36176;51.506;10.272;2023-12-20T06:42:07;99102.69;;;5.22;92.34
50282;BME280;36176;51.506;10.272;2023-12-20T06:44:35;99101.88;;;5.20;92.94
50282;BME280;36176;51.506;10.272;2023-12-20T06:47:02;99101.91;;;5.19;92.77
50282;BME280;36176;51.506;10.272;2023-12-20T06:49:29;99096.66;;;5.19;93.21
50282;BME280;36176;51.506;10.272;2023-12-20T06:51:56;99097.44;;;5.22;92.83
50282;BME280;36176;51.506;10.272;2023-12-20T06:54:24;99094.84;;;5.21;92.39
50282;BME280;36176;51.506;10.272;2023-12-20T06:56:51;99098.34;;;5.21;92.38
50282;BME280;36176;51.506;10.272;2023-12-20T06:59:18;99088.69;;;5.22;92.62
50282;BME280;36176;51.506;10.272;2023-12-20T07:01:48;99093.94;;;5.22;92.38
50282;BME280;36176;51.506;10.272;2023-12-20T07:04:16;99089.56;;;5.22;92.45
50282;BME280;36176;51.506;10.272;2023-12-20T07:06:43;99092.19;;;5.22;92.68
50282;BME280;36176;51.506;10.272;2023-12-20T07:09:10;99104.44;;;5.22;92.10
50282;BME280;36176;51.506;10.272;2023-12-20T07:11:37;99091.28;;;5.23;92.22
50282;BME280;36176;51.506;10.272;2023-12-20T07:14:05;99091.28;;;5.23;91.79
50282;BME280;36176;51.506;10.272;2023-12-20T07:16:32;99099.13;;;5.25;91.62
50282;BME280;36176;51.506;10.272;2023-12-20T07:18:59;99095.53;;;5.27;91.51
50282;BME280;36176;51.506;10.272;2023-12-20T07:21:26;99094.50;;;5.31;91.37
50282;BME280;36176;51.506;10.272;2023-12-20T07:23:54;99089.22;;;5.33;90.89
50282;BME280;36176;51.506;10.272;2023-12-20T07:26:21;99094.47;;;5.33;91.11
50282;BME280;36176;51.506;10.272;2023-12-20T07:28:48;99106.72;;;5.34;90.95
50282;BME280;36176;51.506;10.272;2023-12-20T07:31:15;99105.78;;;5.35;91.72
50282;BME280;36176;51.506;10.272;2023-12-20T07:33:42;99110.22;;;5.33;92.27
50282;BME280;36176;51.506;10.272;2023-12-20T07:36:12;99105.97;;;5.29;91.78
50282;BME280;36176;51.506;10.272;2023-12-20T07:38:39;99116.53;;;5.27;92.09
50282;BME280;36176;51.506;10.272;2023-12-20T07:41:06;99115.63;;;5.28;92.26
50282;BME280;36176;51.506;10.272;2023-12-20T07:43:35;99102.69;;;5.22;93.05
50282;BME280;36176;51.506;10.272;2023-12-20T07:46:07;99106.28;;;5.20;93.67
50282;BME280;36176;51.506;10.272;2023-12-20T07:48:35;99101.16;;;5.15;93.78
50282;BME280;36176;51.506;10.272;2023-12-20T07:51:03;99111.75;;;5.12;93.83
50282;BME280;36176;51.506;10.272;2023-12-20T07:53:30;99118.78;;;5.11;93.82
50282;BME280;36176;51.506;10.272;2023-12-20T07:55:57;99110.88;;;5.11;93.99
50282;BME280;36176;51.506;10.272;2023-12-20T07:58:24;99102.16;;;5.11;93.49
50282;BME280;36176;51.506;10.272;2023-12-20T08:01:11;99109.03;;;5.15;93.89
50282;BME280;36176;51.506;10.272;2023-12-20T08:03:39;99109.78;;;5.19;93.53
50282;BME280;36176;51.506;10.272;2023-12-20T08:06:06;99105.47;;;5.18;93.25
50282;BME280;36176;51.506;10.272;2023-12-20T08:08:33;99118.59;;;5.18;93.67
50282;BME280;36176;51.506;10.272;2023-12-20T08:11:00;99107.16;;;5.19;94.06
50282;BME280;36176;51.506;10.272;2023-12-20T08:13:28;99103.78;;;5.15;93.91
50282;BME280;36176;51.506;10.272;2023-12-20T08:15:55;99096.81;;;5.14;94.00
50282;BME280;36176;51.506;10.272;2023-12-20T08:18:22;99108.25;;;5.11;94.19
50282;BME280;36176;51.506;10.272;2023-12-20T08:20:49;99116.16;;;5.11;93.92
50282;BME280;36176;51.506;10.272;2023-12-20T08:23:17;99109.03;;;5.15;94.01
50282;BME280;36176;51.506;10.272;2023-12-20T08:25:44;99117.81;;;5.14;94.32
50282;BME280;36176;51.506;10.272;2023-12-20T08:28:11;99114.34;;;5.14;94.19
50282;BME280;36176;51.506;10.272;2023-12-20T08:30:38;99134.34;;;5.18;94.34
50282;BME280;36176;51.506;10.272;2023-12-20T08:33:06;99133.31;;;5.22;93.72
50282;BME280;36176;51.506;10.272;2023-12-20T08:35:33;99133.28;;;5.23;93.99
50282;BME280;36176;51.506;10.272;2023-12-20T08:38:01;99128.00;;;5.25;93.53
50282;BME280;36176;51.506;10.272;2023-12-20T08:40:28;99125.38;;;5.25;92.93
50282;BME280;36176;51.506;10.272;2023-12-20T08:42:55;99135.88;;;5.25;93.44
50282;BME280;36176;51.506;10.272;2023-12-20T08:45:23;99117.50;;;5.25;92.95
50282;BME280;36176;51.506;10.272;2023-12-20T08:47:50;99128.00;;;5.25;92.72
50282;BME280;36176;51.506;10.272;2023-12-20T08:50:18;99126.91;;;5.32;93.08
50282;BME280;36176;51.506;10.272;2023-12-20T08:52:45;99132.03;;;5.37;93.22
50282;BME280;36176;51.506;10.272;2023-12-20T08:55:12;99130.03;;;5.43;92.49
50282;BME280;36176;51.506;10.272;2023-12-20T08:57:39;99130.00;;;5.45;91.83
50282;BME280;36176;51.506;10.272;2023-12-20T09:00:07;99139.56;;;5.47;91.93
50282;BME280;36176;51.506;10.272;2023-12-20T09:02:35;99123.75;;;5.49;91.41
50282;BME280;36176;51.506;10.272;2023-12-20T09:05:02;99130.78;;;5.48;91.23
50282;BME280;36176;51.506;10.272;2023-12-20T09:07:30;99133.19;;;5.54;91.32
50282;BME280;36176;51.506;10.272;2023-12-20T09:09:58;99134.94;;;5.56;90.88
50282;BME280;36176;51.506;10.272;2023-12-20T09:12:25;99129.59;;;5.57;90.89
50282;BME280;36176;51.506;10.272;2023-12-20T09:14:52;99132.19;;;5.59;91.17
50282;BME280;36176;51.506;10.272;2023-12-20T09:17:20;99136.47;;;5.61;90.94
50282;BME280;36176;51.506;10.272;2023-12-20T09:19:47;99124.16;;;5.63;91.19
50282;BME280;36176;51.506;10.272;2023-12-20T09:22:14;99125.88;;;5.64;90.64
50282;BME280;36176;51.506;10.272;2023-12-20T09:24:41;99125.72;;;5.69;90.50
50282;BME280;36176;51.506;10.272;2023-12-20T09:27:11;99120.47;;;5.69;89.84
50282;BME280;36176;51.506;10.272;2023-12-20T09:29:39;99122.19;;;5.70;89.81
50282;BME280;36176;51.506;10.272;2023-12-20T09:32:06;99120.34;;;5.72;89.99
50282;BME280;36176;51.506;10.272;2023-12-20T09:34:33;99124.66;;;5.74;90.06
50282;BME280;36176;51.506;10.272;2023-12-20T09:37:00;99126.28;;;5.79;89.53
50282;BME280;36176;51.506;10.272;2023-12-20T09:39:27;99121.88;;;5.79;89.86
50282;BME280;36176;51.506;10.272;2023-12-20T09:44:30;99120.28;;;5.75;89.61
50282;BME280;36176;51.506;10.272;2023-12-20T09:46:57;99116.88;;;5.71;90.17
50282;BME280;36176;51.506;10.272;2023-12-20T09:49:25;99110.72;;;5.72;89.75
50282;BME280;36176;51.506;10.272;2023-12-20T09:51:54;99110.75;;;5.71;89.81
50282;BME280;36176;51.506;10.272;2023-12-20T09:54:23;99119.56;;;5.70;89.92
50282;BME280;36176;51.506;10.272;2023-12-20T09:56:50;99111.63;;;5.71;90.14
50282;BME280;36176;51.506;10.272;2023-12-20T09:59:18;99103.72;;;5.71;90.14
50282;BME280;36176;51.506;10.272;2023-12-20T10:01:45;99103.69;;;5.73;89.83
50282;BME280;36176;51.506;10.272;2023-12-20T10:04:13;99096.66;;;5.73;90.45
50282;BME280;36176;51.506;10.272;2023-12-20T10:06:55;99101.78;;;5.76;90.32
50282;BME280;36176;51.506;10.272;2023-12-20T10:09:23;99095.69;;;5.76;90.67
50282;BME280;36176;51.506;10.272;2023-12-20T10:11:54;99096.66;;;5.73;90.43
50282;BME280;36176;51.506;10.272;2023-12-20T10:14:21;99087.00;;;5.74;90.34
50282;BME280;36176;51.506;10.272;2023-12-20T10:16:48;99080.84;;;5.75;91.02
50282;BME280;36176;51.506;10.272;2023-12-20T10:19:19;99082.50;;;5.78;90.50
50282;BME280;36176;51.506;10.272;2023-12-20T10:21:46;99076.28;;;5.80;90.50
50282;BME280;36176;51.506;10.272;2023-12-20T10:24:17;99070.78;;;5.86;89.85
50282;BME280;36176;51.506;10.272;2023-12-20T10:26:45;99063.56;;;5.94;90.00
50282;BME280;36176;51.506;10.272;2023-12-20T10:29:12;99069.50;;;6.00;89.74
50282;BME280;36176;51.506;10.272;2023-12-20T10:31:39;99059.56;;;6.08;89.23
50282;BME280;36176;51.506;10.272;2023-12-20T10:34:06;99033.78;;;6.17;89.13
50282;BME280;36176;51.506;10.272;2023-12-20T10:36:34;99039.56;;;6.27;89.63
50282;BME280;36176;51.506;10.272;2023-12-20T10:39:01;99046.16;;;6.39;89.37
50282;BME280;36176;51.506;10.272;2023-12-20T10:41:32;99035.88;;;6.56;88.86
50282;BME280;36176;51.506;10.272;2023-12-20T10:44:03;99042.63;;;7.09;88.60
50282;BME280;36176;51.506;10.272;2023-12-20T10:46:31;99028.94;;;7.84;86.23
50282;BME280;36176;51.506;10.272;2023-12-20T10:48:59;99026.13;;;8.49;80.72
50282;BME280;36176;51.506;10.272;2023-12-20T10:51:28;99022.06;;;8.80;80.48
50282;BME280;36176;51.506;10.272;2023-12-20T10:53:56;99020.81;;;9.06;78.71
50282;BME280;36176;51.506;10.272;2023-12-20T10:56:23;99006.03;;;9.38;77.26
50282;BME280;36176;51.506;10.272;2023-12-20T10:58:50;98999.97;;;9.53;76.48
50282;BME280;36176;51.506;10.272;2023-12-20T11:01:19;99006.75;;;9.42;74.87
50282;BME280;36176;51.506;10.272;2023-12-20T11:03:51;98999.25;;;9.15;75.09
50282;BME280;36176;51.506;10.272;2023-12-20T11:09:14;98985.81;;;8.25;76.81
50282;BME280;36176;51.506;10.272;2023-12-20T11:12:02;98982.97;;;7.90;78.32
50282;BME280;36176;51.506;10.272;2023-12-20T11:17:09;98986.03;;;7.40;81.11
50282;BME280;36176;51.506;10.272;2023-12-20T11:19:43;98997.31;;;7.21;81.54
50282;BME280;36176;51.506;10.272;2023-12-20T11:22:27;98986.16;;;7.15;82.06
50282;BME280;36176;51.506;10.272;2023-12-20T11:24:58;98988.56;;;6.99;82.63
50282;BME280;36176;51.506;10.272;2023-12-20T11:27:26;98986.41;;;6.87;83.68
50282;BME280;36176;51.506;10.272;2023-12-20T11:29:56;98979.69;;;6.79;84.05
50282;BME280;36176;51.506;10.272;2023-12-20T11:34:51;98971.38;;;6.68;84.76
50282;BME280;36176;51.506;10.272;2023-12-20T11:37:21;98962.41;;;6.72;84.33
50282;BME280;36176;51.506;10.272;2023-12-20T11:39:55;98959.19;;;6.66;85.09
50282;BME280;36176;51.506;10.272;2023-12-20T11:42:22;98962.00;;;6.61;84.50
50282;BME280;36176;51.506;10.272;2023-12-20T11:44:50;98954.19;;;6.58;85.84
50282;BME280;36176;51.506;10.272;2023-12-20T11:47:17;98953.22;;;6.60;87.86
50282;BME280;36176;51.506;10.272;2023-12-20T11:49:47;98938.53;;;6.55;87.27
50282;BME280;36176;51.506;10.272;2023-12-20T11:52:14;98942.31;;;6.48;88.13
50282;BME280;36176;51.506;10.272;2023-12-20T11:54:42;98936.38;;;6.43;88.45
50282;BME280;36176;51.506;10.272;2023-12-20T11:57:09;98915.03;;;6.50;88.60
50282;BME280;36176;51.506;10.272;2023-12-20T11:59:37;98921.13;;;6.51;88.02
50282;BME280;36176;51.506;10.272;2023-12-20T12:02:04;98925.59;;;6.49;87.96
50282;BME280;36176;51.506;10.272;2023-12-20T12:04:31;98920.28;;;6.50;87.38
50282;BME280;36176;51.506;10.272;2023-12-20T12:06:59;98929.84;;;6.53;88.14
50282;BME280;36176;51.506;10.272;2023-12-20T12:09:26;98929.28;;;6.45;87.08
50282;BME280;36176;51.506;10.272;2023-12-20T12:11:53;98916.94;;;6.47;86.29
50282;BME280;36176;51.506;10.272;2023-12-20T12:14:20;98930.19;;;6.44;87.81
50282;BME280;36176;51.506;10.272;2023-12-20T12:16:48;98915.38;;;6.41;88.45
50282;BME280;36176;51.506;10.272;2023-12-20T12:19:22;98912.84;;;6.39;88.49
50282;BME280;36176;51.506;10.272;2023-12-20T12:22:05;98897.91;;;6.40;88.74
50282;BME280;36176;51.506;10.272;2023-12-20T12:24:33;98893.25;;;6.47;88.69
50282;BME280;36176;51.506;10.272;2023-12-20T12:27:00;98893.00;;;6.53;88.03
50282;BME280;36176;51.506;10.272;2023-12-20T12:29:28;98892.84;;;6.56;88.17
50282;BME280;36176;51.506;10.272;2023-12-20T12:31:55;98897.84;;;6.64;88.31
50282;BME280;36176;51.506;10.272;2023-12-20T12:34:23;98890.94;;;6.61;88.36
50282;BME280;36176;51.506;10.272;2023-12-20T12:36:50;98890.50;;;6.50;88.67
50282;BME280;36176;51.506;10.272;2023-12-20T12:39:18;98892.50;;;6.43;88.91
50282;BME280;36176;51.506;10.272;2023-12-20T12:41:45;98886.53;;;6.39;89.98
50282;BME280;36176;51.506;10.272;2023-12-20T12:44:12;98884.34;;;6.27;90.74
50282;BME280;36176;51.506;10.272;2023-12-20T12:46:45;98875.09;;;6.17;92.17
50282;BME280;36176;51.506;10.272;2023-12-20T12:49:13;98865.69;;;6.11;93.62
50282;BME280;36176;51.506;10.272;2023-12-20T12:51:40;98873.75;;;6.07;93.66
50282;BME280;36176;51.506;10.272;2023-12-20T12:54:07;98874.78;;;6.03;93.70
50282;BME280;36176;51.506;10.272;2023-12-20T12:56:35;98882.78;;;6.00;94.98
50282;BME280;36176;51.506;10.272;2023-12-20T12:59:02;98865.47;;;5.94;95.63
50282;BME280;36176;51.506;10.272;2023-12-20T13:01:29;98861.16;;;5.91;96.11
50282;BME280;36176;51.506;10.272;2023-12-20T13:03:57;98860.59;;;5.83;95.73
50282;BME280;36176;51.506;10.272;2023-12-20T13:06:24;98862.53;;;5.78;96.79
50282;BME280;36176;51.506;10.272;2023-12-20T13:08:51;98860.91;;;5.74;96.73
50282;BME280;36176;51.506;10.272;2023-12-20T13:11:18;98847.94;;;5.69;96.82